createdAt,value
2022-08-26T00:03:13.730Z,3.42
2022-08-26T00:08:15.851Z,2.80
2022-08-26T00:13:19.632Z,3.10
2022-08-26T00:18:22.531Z,3.60
2022-08-26T00:23:24.487Z,3.45
2022-08-26T00:28:26.414Z,3.80
2022-08-26T00:33:28.182Z,3.30
2022-08-26T00:38:30.363Z,3.63
2022-08-26T00:43:47.144Z,4.18
2022-08-26T00:48:53.545Z,3.78
2022-08-26T00:53:59.338Z,3.97
2022-08-26T00:59:04.269Z,4.03
2022-08-26T01:04:06.182Z,4.07
2022-08-26T01:09:08.222Z,4.95
2022-08-26T01:14:12.311Z,5.13
2022-08-26T01:19:25.694Z,6.50
2022-08-26T01:24:28.706Z,8.10
2022-08-26T01:29:31.551Z,10.57
2022-08-26T01:34:36.622Z,11.02
2022-08-26T01:39:40.246Z,12.65
2022-08-26T01:44:45.367Z,13.88
2022-08-26T01:49:48.851Z,14.95
2022-08-26T01:54:53.351Z,14.90
2022-08-26T01:59:57.910Z,15.68
2022-08-26T02:05:02.369Z,15.52
2022-08-26T02:10:05.141Z,14.23
2022-08-26T02:15:10.071Z,16.13
2022-08-26T02:20:16.467Z,16.88
2022-08-26T02:25:41.629Z,17.25
2022-08-26T02:30:44.358Z,17.30
2022-08-26T02:35:46.306Z,16.88
2022-08-26T02:40:48.293Z,18.60
2022-08-26T02:45:49.853Z,17.35
2022-08-26T02:50:51.525Z,17.60
2022-08-26T02:55:53.758Z,16.67
2022-08-26T03:00:55.373Z,16.85
2022-08-26T03:05:56.942Z,19.85
2022-08-26T03:10:59.460Z,18.02
2022-08-26T03:16:03.480Z,18.45
2022-08-26T03:21:07.772Z,18.55
2022-08-26T03:26:11.032Z,17.20
2022-08-26T03:31:12.641Z,18.02
2022-08-26T03:36:15.388Z,18.08
2022-08-26T03:41:18.115Z,16.73
2022-08-26T03:46:20.607Z,16.50
2022-08-26T03:51:22.694Z,17.20
2022-08-26T03:56:26.165Z,15.70
2022-08-26T04:01:28.105Z,17.02
2022-08-26T04:06:35.840Z,15.88
2022-08-26T04:11:39.406Z,17.95
2022-08-26T04:16:42.697Z,18.77
2022-08-26T04:21:46.612Z,18.17
2022-08-26T04:26:48.650Z,17.58
2022-08-26T04:31:50.500Z,18.55
2022-08-26T04:36:58.004Z,19.45
2022-08-26T04:42:01.776Z,16.55
2022-08-26T04:47:04.720Z,18.77
2022-08-26T04:52:06.555Z,19.13
2022-08-26T04:57:09.307Z,21.08
2022-08-26T05:02:11.842Z,19.40
2022-08-26T05:07:13.419Z,20.50
2022-08-26T05:12:15.155Z,18.42
2022-08-26T05:17:18.000Z,19.95
2022-08-26T05:22:20.245Z,18.13
2022-08-26T05:27:22.162Z,19.77
2022-08-26T05:32:24.482Z,19.85
2022-08-26T05:37:26.078Z,19.85
2022-08-26T05:42:29.610Z,17.60
2022-08-26T05:47:31.166Z,17.30
2022-08-26T05:52:33.684Z,16.45
2022-08-26T05:57:39.973Z,16.40
2022-08-26T06:02:43.992Z,17.13
2022-08-26T06:08:08.742Z,15.88
2022-08-26T06:13:12.249Z,15.93
2022-08-26T06:18:32.740Z,14.23
2022-08-26T06:23:53.527Z,14.57
2022-08-26T06:28:55.490Z,14.15
2022-08-26T06:33:58.310Z,14.32
2022-08-26T06:39:04.213Z,12.70
2022-08-26T06:44:07.129Z,13.88
2022-08-26T06:49:09.691Z,13.02
2022-08-26T06:54:11.882Z,13.85
2022-08-26T06:59:13.438Z,12.70
2022-08-26T07:04:20.286Z,12.50
2022-08-26T07:09:26.569Z,12.50
2022-08-26T07:14:29.010Z,11.90
2022-08-26T07:19:31.754Z,12.13
2022-08-26T07:24:35.690Z,12.85
2022-08-26T07:29:39.047Z,11.88
2022-08-26T07:34:41.841Z,12.60
2022-08-26T07:39:45.126Z,13.00
2022-08-26T07:44:46.818Z,14.85
2022-08-26T07:49:48.398Z,12.93
2022-08-26T07:54:57.419Z,13.27
2022-08-26T07:59:59.638Z,12.35
2022-08-26T08:05:02.352Z,13.63
2022-08-26T08:10:09.660Z,13.45
2022-08-26T08:15:14.045Z,12.60
2022-08-26T08:20:15.658Z,12.40
2022-08-26T08:25:17.352Z,12.98
2022-08-26T08:30:22.824Z,12.77
2022-08-26T08:35:26.353Z,12.30
2022-08-26T08:40:29.279Z,13.10
2022-08-26T08:45:37.005Z,12.63
2022-08-26T08:50:47.850Z,12.50
2022-08-26T08:56:12.908Z,14.05
2022-08-26T09:01:37.440Z,11.18
2022-08-26T09:06:39.019Z,11.73
2022-08-26T09:11:43.385Z,15.05
2022-08-26T09:17:03.189Z,11.15
2022-08-26T09:22:09.353Z,13.48
2022-08-26T09:27:11.656Z,14.75
2022-08-26T09:32:21.863Z,14.38
2022-08-26T09:43:15.855Z,14.05
2022-08-26T09:48:26.733Z,15.32
2022-08-26T09:53:34.283Z,13.93
2022-08-26T09:58:38.926Z,14.80
2022-08-26T10:03:44.506Z,14.80
2022-08-26T10:08:55.930Z,13.18
2022-08-26T10:14:11.159Z,13.60
2022-08-26T10:19:17.479Z,12.80
2022-08-26T10:24:23.838Z,12.88
2022-08-26T10:29:34.293Z,12.32
2022-08-26T10:34:35.821Z,11.93
2022-08-26T10:39:58.857Z,10.85
2022-08-26T10:45:11.783Z,11.23
2022-08-26T10:50:14.054Z,12.05
2022-08-26T10:55:23.166Z,11.05
2022-08-26T11:01:10.119Z,8.90
2022-08-26T11:06:16.390Z,8.60
2022-08-26T11:11:39.705Z,8.35
2022-08-26T11:16:45.320Z,8.27
2022-08-26T11:22:11.635Z,8.65
2022-08-26T11:27:25.822Z,9.70
2022-08-26T11:32:51.328Z,10.40
2022-08-26T11:38:20.416Z,6.97
2022-08-26T11:43:25.972Z,5.95
2022-08-26T11:48:33.328Z,5.68
2022-08-26T11:53:47.190Z,5.30
2022-08-26T11:58:51.127Z,5.03
2022-08-26T12:03:53.407Z,4.78
2022-08-26T12:09:00.252Z,4.47
2022-08-26T12:14:17.163Z,3.95
2022-08-26T12:19:32.634Z,3.95
2022-08-26T12:24:35.135Z,4.10
2022-08-26T12:29:37.145Z,3.88
2022-08-26T12:34:42.360Z,3.92
2022-08-26T12:39:44.709Z,3.35
2022-08-26T12:44:53.232Z,3.47
2022-08-26T12:50:37.890Z,2.97
2022-08-26T12:55:41.567Z,3.30
2022-08-26T13:00:47.248Z,3.53
2022-08-26T13:05:49.582Z,3.63
2022-08-26T13:11:04.262Z,3.30
2022-08-26T13:16:07.023Z,2.88
2022-08-26T13:21:12.191Z,3.20
2022-08-26T13:26:13.814Z,2.80
2022-08-26T13:31:16.263Z,2.50
2022-08-26T13:36:20.749Z,2.65
2022-08-26T13:41:29.010Z,2.45
2022-08-26T13:46:31.670Z,2.60
2022-08-26T13:51:33.815Z,2.20
2022-08-26T13:56:35.805Z,2.75
2022-08-26T14:01:38.080Z,2.28
2022-08-26T14:06:39.600Z,2.35
2022-08-26T14:11:50.849Z,2.47
2022-08-26T14:17:00.033Z,2.47
2022-08-26T14:22:01.840Z,2.22
2022-08-26T14:27:03.481Z,2.53
2022-08-26T14:32:11.386Z,2.30
2022-08-26T14:37:15.398Z,2.78
2022-08-26T14:42:21.708Z,2.20
2022-08-26T14:47:23.389Z,2.20
2022-08-26T14:52:25.407Z,1.98
2022-08-26T14:57:26.919Z,2.83
2022-08-26T15:02:33.355Z,2.35
2022-08-26T15:07:35.477Z,1.90
2022-08-26T15:12:38.075Z,1.75
2022-08-26T15:17:40.385Z,2.38
2022-08-26T15:22:43.115Z,2.30
2022-08-26T15:27:45.265Z,1.98
2022-08-26T15:32:46.747Z,2.33
2022-08-26T15:37:48.901Z,2.28
2022-08-26T15:42:57.597Z,2.78
2022-08-26T15:48:03.956Z,2.97
2022-08-26T15:53:05.491Z,3.28
2022-08-26T15:58:07.149Z,3.45
2022-08-26T16:03:09.602Z,3.83
2022-08-26T16:08:11.547Z,3.35
2022-08-26T16:13:14.804Z,3.40
2022-08-26T16:18:16.762Z,4.53
2022-08-26T16:23:18.778Z,5.70
2022-08-26T16:28:25.067Z,5.32
2022-08-26T16:33:29.499Z,5.00
2022-08-26T16:38:31.456Z,4.50
2022-08-26T16:43:33.315Z,5.30
2022-08-26T16:48:36.170Z,5.68
2022-08-26T16:53:38.066Z,7.70
2022-08-26T16:58:40.131Z,8.30
2022-08-26T17:03:41.763Z,6.72
2022-08-26T17:08:43.826Z,5.60
2022-08-26T17:13:45.486Z,3.75
2022-08-26T17:18:47.375Z,3.38
2022-08-26T17:23:48.995Z,3.28
2022-08-26T17:28:50.620Z,3.38
2022-08-26T17:33:54.011Z,3.22
2022-08-26T17:38:59.582Z,2.72
2022-08-26T17:44:01.279Z,3.30
2022-08-26T17:49:04.427Z,2.90
2022-08-26T17:54:05.978Z,3.20
2022-08-26T17:59:07.908Z,1.85
2022-08-26T18:04:10.246Z,1.90
2022-08-26T18:09:12.041Z,1.58
2022-08-26T18:14:13.648Z,1.63
2022-08-26T18:19:15.608Z,1.50
2022-08-26T18:24:17.729Z,1.58
2022-08-26T18:29:19.839Z,1.40
2022-08-26T18:34:21.489Z,1.73
2022-08-26T18:39:23.476Z,1.85
2022-08-26T18:44:25.469Z,1.75
2022-08-26T18:49:27.184Z,1.60
2022-08-26T18:54:30.000Z,1.58
2022-08-26T18:59:31.779Z,2.20
2022-08-26T19:04:33.396Z,1.60
2022-08-26T19:09:35.431Z,1.40
2022-08-26T19:14:37.660Z,2.33
2022-08-26T19:19:39.243Z,2.90
2022-08-26T19:24:40.783Z,3.35
2022-08-26T19:29:42.346Z,3.10
2022-08-26T19:34:44.453Z,2.53
2022-08-26T19:39:47.049Z,2.72
2022-08-26T19:45:07.146Z,2.90
2022-08-26T19:50:12.466Z,2.60
2022-08-26T19:55:16.986Z,2.50
2022-08-26T20:00:23.865Z,2.70
2022-08-26T20:05:26.757Z,1.95
2022-08-26T20:10:28.939Z,1.50
2022-08-26T20:15:30.480Z,1.40
2022-08-26T20:20:50.575Z,1.50
2022-08-26T20:25:52.089Z,1.48
2022-08-26T20:30:53.736Z,1.42
2022-08-26T20:35:55.223Z,1.45
2022-08-26T20:40:56.697Z,1.50
2022-08-26T20:45:58.277Z,1.73
2022-08-26T20:51:00.750Z,1.63
2022-08-26T20:56:05.554Z,1.97
2022-08-26T21:01:08.259Z,1.77
2022-08-26T21:06:10.373Z,1.90
2022-08-26T21:11:12.232Z,2.13
2022-08-26T21:16:13.918Z,2.33
2022-08-26T21:21:15.594Z,2.40
2022-08-26T21:26:17.287Z,2.90
2022-08-26T21:31:21.251Z,2.87
2022-08-26T21:36:23.364Z,2.60
2022-08-26T21:41:26.031Z,2.50
2022-08-26T21:46:30.236Z,3.33
2022-08-26T21:51:33.988Z,4.03
2022-08-26T21:56:39.707Z,4.35
2022-08-26T22:01:41.551Z,4.50
2022-08-26T22:06:52.837Z,3.88
2022-08-26T22:11:56.460Z,3.80
2022-08-26T22:16:58.727Z,3.57
2022-08-26T22:22:00.878Z,4.23
2022-08-26T22:27:02.408Z,5.43
2022-08-26T22:32:04.652Z,5.10
2022-08-26T22:37:06.402Z,4.40
2022-08-26T22:42:08.047Z,4.00
2022-08-26T22:47:09.664Z,4.10
2022-08-26T22:52:11.331Z,3.23
2022-08-26T22:57:13.086Z,3.07
2022-08-26T23:02:14.881Z,2.87
2022-08-26T23:07:16.613Z,2.50
2022-08-26T23:12:18.161Z,2.70
2022-08-26T23:17:19.686Z,2.70
2022-08-26T23:22:21.237Z,3.67
2022-08-26T23:27:22.846Z,2.97
2022-08-26T23:32:24.330Z,3.17
2022-08-26T23:37:31.477Z,3.53
2022-08-26T23:42:36.076Z,2.60
2022-08-26T23:47:37.620Z,3.10
2022-08-26T23:52:57.800Z,3.23
2022-08-26T23:57:59.785Z,4.20
